New Allen, Kentucky
Current Conditions -  °F | °C
As of 1:15 AM on Thursday 23 Oct 2014 (Local Time) from KPBX Reporting Station
Overcast Overcast  
Wind Chill: 43°   Ceiling: 2000
Heat Index: 46°   Visibility: 10mi
Dew Point: 42°   Wind: 5mph
Humidity: 88%   Direction: 340°NNW
Pressure: 30.21"   Gusts: NA
Location:  37.5917°N, 82.646°W
Report Text: KPBX 230515Z AUTO 34004KT 10SM OVC020 08/06 A3021 RMK AO2 T00750057
Loading
Personal Weather Stations






























Interactive Weather Map
Tropical Storm Tracking
New forecast layout! Learn more

10-Day Weather Forecast

Advertisements
Track Severe Weather on mobile